sensor_id;sensor_type;location;lat;lon;timestamp;P1;durP1;ratioP1;P2;durP2;ratioP2
24677;SDS011;12800;53.094;8.778;2024-03-02T00:00:51;12.23;;;9.80;;
24677;SDS011;12800;53.094;8.778;2024-03-02T00:03:17;14.07;;;9.47;;
24677;SDS011;12800;53.094;8.778;2024-03-02T00:05:43;15.57;;;9.57;;
24677;SDS011;12800;53.094;8.778;2024-03-02T00:08:13;16.53;;;10.10;;
24677;SDS011;12800;53.094;8.778;2024-03-02T00:10:48;13.77;;;9.70;;
24677;SDS011;12800;53.094;8.778;2024-03-02T00:13:14;12.77;;;8.93;;
24677;SDS011;12800;53.094;8.778;2024-03-02T00:15:40;13.03;;;8.93;;
24677;SDS011;12800;53.094;8.778;2024-03-02T00:18:40;13.30;;;9.33;;
24677;SDS011;12800;53.094;8.778;2024-03-02T00:21:05;12.60;;;9.17;;
24677;SDS011;12800;53.094;8.778;2024-03-02T00:23:34;15.30;;;9.37;;
24677;SDS011;12800;53.094;8.778;2024-03-02T00:26:00;13.80;;;10.63;;
24677;SDS011;12800;53.094;8.778;2024-03-02T00:28:27;12.40;;;8.73;;
24677;SDS011;12800;53.094;8.778;2024-03-02T00:31:02;13.30;;;8.87;;
24677;SDS011;12800;53.094;8.778;2024-03-02T00:33:33;12.60;;;9.33;;
24677;SDS011;12800;53.094;8.778;2024-03-02T00:36:07;13.27;;;8.97;;
24677;SDS011;12800;53.094;8.778;2024-03-02T00:38:34;12.03;;;9.00;;
24677;SDS011;12800;53.094;8.778;2024-03-02T00:41:07;11.60;;;8.70;;
24677;SDS011;12800;53.094;8.778;2024-03-02T00:46:18;21.03;;;13.70;;
24677;SDS011;12800;53.094;8.778;2024-03-02T00:48:48;12.80;;;10.00;;
24677;SDS011;12800;53.094;8.778;2024-03-02T00:51:19;15.27;;;9.67;;
24677;SDS011;12800;53.094;8.778;2024-03-02T00:53:45;11.10;;;8.23;;
24677;SDS011;12800;53.094;8.778;2024-03-02T00:56:11;12.63;;;8.40;;
24677;SDS011;12800;53.094;8.778;2024-03-02T00:58:37;13.60;;;8.73;;
24677;SDS011;12800;53.094;8.778;2024-03-02T01:01:03;12.43;;;8.37;;
24677;SDS011;12800;53.094;8.778;2024-03-02T01:03:29;10.80;;;8.10;;
24677;SDS011;12800;53.094;8.778;2024-03-02T01:05:56;11.73;;;7.47;;
24677;SDS011;12800;53.094;8.778;2024-03-02T01:08:22;14.33;;;8.77;;
24677;SDS011;12800;53.094;8.778;2024-03-02T01:10:48;12.80;;;8.70;;
24677;SDS011;12800;53.094;8.778;2024-03-02T01:13:14;10.97;;;8.00;;
24677;SDS011;12800;53.094;8.778;2024-03-02T01:15:40;10.83;;;8.17;;
24677;SDS011;12800;53.094;8.778;2024-03-02T01:18:05;10.43;;;7.60;;
24677;SDS011;12800;53.094;8.778;2024-03-02T01:20:31;10.50;;;8.17;;
24677;SDS011;12800;53.094;8.778;2024-03-02T01:22:57;10.37;;;7.60;;
24677;SDS011;12800;53.094;8.778;2024-03-02T01:25:23;11.50;;;7.90;;
24677;SDS011;12800;53.094;8.778;2024-03-02T01:27:48;12.07;;;8.17;;
24677;SDS011;12800;53.094;8.778;2024-03-02T01:30:14;11.07;;;8.27;;
24677;SDS011;12800;53.094;8.778;2024-03-02T01:32:39;11.13;;;8.40;;
24677;SDS011;12800;53.094;8.778;2024-03-02T01:35:05;11.60;;;8.30;;
24677;SDS011;12800;53.094;8.778;2024-03-02T01:37:32;12.20;;;8.17;;
24677;SDS011;12800;53.094;8.778;2024-03-02T01:39:58;11.97;;;8.67;;
24677;SDS011;12800;53.094;8.778;2024-03-02T01:42:24;10.20;;;7.97;;
24677;SDS011;12800;53.094;8.778;2024-03-02T01:44:49;11.27;;;8.23;;
24677;SDS011;12800;53.094;8.778;2024-03-02T01:47:15;13.63;;;8.30;;
24677;SDS011;12800;53.094;8.778;2024-03-02T01:49:42;10.40;;;7.70;;
24677;SDS011;12800;53.094;8.778;2024-03-02T01:52:08;10.17;;;8.47;;
24677;SDS011;12800;53.094;8.778;2024-03-02T01:54:33;10.57;;;7.70;;
24677;SDS011;12800;53.094;8.778;2024-03-02T01:56:59;9.57;;;8.03;;
24677;SDS011;12800;53.094;8.778;2024-03-02T01:59:25;11.93;;;8.53;;
24677;SDS011;12800;53.094;8.778;2024-03-02T02:01:51;13.37;;;7.70;;
24677;SDS011;12800;53.094;8.778;2024-03-02T02:04:17;10.23;;;8.10;;
24677;SDS011;12800;53.094;8.778;2024-03-02T02:06:45;10.93;;;7.97;;
24677;SDS011;12800;53.094;8.778;2024-03-02T02:09:11;10.90;;;8.23;;
24677;SDS011;12800;53.094;8.778;2024-03-02T02:11:37;10.70;;;7.87;;
24677;SDS011;12800;53.094;8.778;2024-03-02T02:14:03;12.17;;;7.93;;
24677;SDS011;12800;53.094;8.778;2024-03-02T02:16:28;11.20;;;7.63;;
24677;SDS011;12800;53.094;8.778;2024-03-02T02:18:54;10.13;;;7.77;;
24677;SDS011;12800;53.094;8.778;2024-03-02T02:21:22;10.13;;;7.50;;
24677;SDS011;12800;53.094;8.778;2024-03-02T02:23:48;10.03;;;7.70;;
24677;SDS011;12800;53.094;8.778;2024-03-02T02:26:15;10.47;;;7.33;;
24677;SDS011;12800;53.094;8.778;2024-03-02T02:28:40;10.40;;;7.70;;
24677;SDS011;12800;53.094;8.778;2024-03-02T02:31:12;10.93;;;7.30;;
24677;SDS011;12800;53.094;8.778;2024-03-02T02:33:41;9.87;;;7.13;;
24677;SDS011;12800;53.094;8.778;2024-03-02T02:36:07;10.50;;;7.47;;
24677;SDS011;12800;53.094;8.778;2024-03-02T02:38:35;10.97;;;7.53;;
24677;SDS011;12800;53.094;8.778;2024-03-02T02:41:08;11.93;;;8.07;;
24677;SDS011;12800;53.094;8.778;2024-03-02T02:43:33;12.87;;;8.17;;
24677;SDS011;12800;53.094;8.778;2024-03-02T02:45:59;10.90;;;7.97;;
24677;SDS011;12800;53.094;8.778;2024-03-02T02:48:25;11.10;;;8.20;;
24677;SDS011;12800;53.094;8.778;2024-03-02T02:50:50;10.23;;;8.03;;
24677;SDS011;12800;53.094;8.778;2024-03-02T02:53:16;11.00;;;8.43;;
24677;SDS011;12800;53.094;8.778;2024-03-02T02:55:42;10.90;;;8.57;;
24677;SDS011;12800;53.094;8.778;2024-03-02T02:58:08;11.27;;;8.57;;
24677;SDS011;12800;53.094;8.778;2024-03-02T03:00:34;14.20;;;9.13;;
24677;SDS011;12800;53.094;8.778;2024-03-02T03:03:01;12.17;;;8.13;;
24677;SDS011;12800;53.094;8.778;2024-03-02T03:05:27;15.67;;;9.13;;
24677;SDS011;12800;53.094;8.778;2024-03-02T03:07:52;15.87;;;9.10;;
24677;SDS011;12800;53.094;8.778;2024-03-02T03:10:18;13.40;;;9.37;;
24677;SDS011;12800;53.094;8.778;2024-03-02T03:12:46;13.37;;;9.70;;
24677;SDS011;12800;53.094;8.778;2024-03-02T03:15:12;12.27;;;9.93;;
24677;SDS011;12800;53.094;8.778;2024-03-02T03:17:39;13.67;;;9.43;;
24677;SDS011;12800;53.094;8.778;2024-03-02T03:20:05;12.13;;;9.50;;
24677;SDS011;12800;53.094;8.778;2024-03-02T03:22:34;16.07;;;10.37;;
24677;SDS011;12800;53.094;8.778;2024-03-02T03:25:04;15.10;;;10.33;;
24677;SDS011;12800;53.094;8.778;2024-03-02T03:27:30;15.17;;;9.97;;
24677;SDS011;12800;53.094;8.778;2024-03-02T03:29:56;14.50;;;10.30;;
24677;SDS011;12800;53.094;8.778;2024-03-02T03:32:21;14.73;;;10.10;;
24677;SDS011;12800;53.094;8.778;2024-03-02T03:34:47;13.53;;;10.00;;
24677;SDS011;12800;53.094;8.778;2024-03-02T03:37:13;13.17;;;9.93;;
24677;SDS011;12800;53.094;8.778;2024-03-02T03:39:40;13.97;;;10.17;;
24677;SDS011;12800;53.094;8.778;2024-03-02T03:42:06;14.27;;;10.30;;
24677;SDS011;12800;53.094;8.778;2024-03-02T03:44:31;13.63;;;10.53;;
24677;SDS011;12800;53.094;8.778;2024-03-02T03:46:58;12.33;;;9.43;;
24677;SDS011;12800;53.094;8.778;2024-03-02T03:49:23;14.17;;;10.50;;
24677;SDS011;12800;53.094;8.778;2024-03-02T03:51:49;12.83;;;10.10;;
24677;SDS011;12800;53.094;8.778;2024-03-02T03:54:14;11.80;;;9.33;;
24677;SDS011;12800;53.094;8.778;2024-03-02T03:56:40;13.00;;;10.03;;
24677;SDS011;12800;53.094;8.778;2024-03-02T03:59:06;11.73;;;8.80;;
24677;SDS011;12800;53.094;8.778;2024-03-02T04:01:31;15.10;;;10.13;;
24677;SDS011;12800;53.094;8.778;2024-03-02T04:03:57;11.97;;;9.80;;
24677;SDS011;12800;53.094;8.778;2024-03-02T04:06:23;11.97;;;9.10;;
24677;SDS011;12800;53.094;8.778;2024-03-02T04:08:49;12.93;;;9.63;;
24677;SDS011;12800;53.094;8.778;2024-03-02T04:11:15;11.80;;;9.07;;
24677;SDS011;12800;53.094;8.778;2024-03-02T04:13:40;13.00;;;9.03;;
24677;SDS011;12800;53.094;8.778;2024-03-02T04:16:06;12.50;;;9.33;;
24677;SDS011;12800;53.094;8.778;2024-03-02T04:18:31;12.90;;;9.20;;
24677;SDS011;12800;53.094;8.778;2024-03-02T04:20:57;12.00;;;9.10;;
24677;SDS011;12800;53.094;8.778;2024-03-02T04:23:26;12.00;;;8.13;;
24677;SDS011;12800;53.094;8.778;2024-03-02T04:25:52;10.97;;;8.63;;
24677;SDS011;12800;53.094;8.778;2024-03-02T04:28:18;12.70;;;9.10;;
24677;SDS011;12800;53.094;8.778;2024-03-02T04:30:43;11.07;;;8.07;;
24677;SDS011;12800;53.094;8.778;2024-03-02T04:33:09;10.07;;;8.07;;
24677;SDS011;12800;53.094;8.778;2024-03-02T04:35:35;9.83;;;7.23;;
24677;SDS011;12800;53.094;8.778;2024-03-02T04:38:01;10.93;;;8.33;;
24677;SDS011;12800;53.094;8.778;2024-03-02T04:40:27;10.67;;;8.17;;
24677;SDS011;12800;53.094;8.778;2024-03-02T04:42:52;11.03;;;8.23;;
24677;SDS011;12800;53.094;8.778;2024-03-02T04:45:18;12.07;;;8.87;;
24677;SDS011;12800;53.094;8.778;2024-03-02T04:47:44;12.83;;;8.30;;
24677;SDS011;12800;53.094;8.778;2024-03-02T04:50:09;14.07;;;8.43;;
24677;SDS011;12800;53.094;8.778;2024-03-02T04:52:35;11.97;;;8.37;;
24677;SDS011;12800;53.094;8.778;2024-03-02T04:55:01;10.47;;;8.20;;
24677;SDS011;12800;53.094;8.778;2024-03-02T04:57:39;10.83;;;8.10;;
24677;SDS011;12800;53.094;8.778;2024-03-02T05:00:04;12.07;;;8.57;;
24677;SDS011;12800;53.094;8.778;2024-03-02T05:02:32;9.77;;;7.93;;
24677;SDS011;12800;53.094;8.778;2024-03-02T05:04:57;9.23;;;7.80;;
24677;SDS011;12800;53.094;8.778;2024-03-02T05:07:23;11.70;;;7.50;;
24677;SDS011;12800;53.094;8.778;2024-03-02T05:09:48;10.73;;;7.57;;
24677;SDS011;12800;53.094;8.778;2024-03-02T05:12:14;9.93;;;7.50;;
24677;SDS011;12800;53.094;8.778;2024-03-02T05:14:58;9.50;;;7.00;;
24677;SDS011;12800;53.094;8.778;2024-03-02T05:17:23;10.10;;;7.63;;
24677;SDS011;12800;53.094;8.778;2024-03-02T05:19:49;11.07;;;6.87;;
24677;SDS011;12800;53.094;8.778;2024-03-02T05:22:15;9.47;;;7.97;;
24677;SDS011;12800;53.094;8.778;2024-03-02T05:24:41;9.17;;;7.53;;
24677;SDS011;12800;53.094;8.778;2024-03-02T05:27:07;11.70;;;7.80;;
24677;SDS011;12800;53.094;8.778;2024-03-02T05:29:32;8.80;;;7.20;;
24677;SDS011;12800;53.094;8.778;2024-03-02T05:31:58;9.97;;;7.40;;
24677;SDS011;12800;53.094;8.778;2024-03-02T05:34:23;10.03;;;7.43;;
24677;SDS011;12800;53.094;8.778;2024-03-02T05:36:49;11.50;;;8.23;;
24677;SDS011;12800;53.094;8.778;2024-03-02T05:39:15;10.33;;;7.43;;
24677;SDS011;12800;53.094;8.778;2024-03-02T05:41:40;11.80;;;8.03;;
24677;SDS011;12800;53.094;8.778;2024-03-02T05:44:06;10.73;;;7.40;;
24677;SDS011;12800;53.094;8.778;2024-03-02T05:46:31;8.73;;;7.17;;
24677;SDS011;12800;53.094;8.778;2024-03-02T05:48:58;9.50;;;7.10;;
24677;SDS011;12800;53.094;8.778;2024-03-02T05:51:24;10.10;;;8.00;;
24677;SDS011;12800;53.094;8.778;2024-03-02T05:53:50;11.07;;;7.90;;
24677;SDS011;12800;53.094;8.778;2024-03-02T05:56:15;10.03;;;8.10;;
24677;SDS011;12800;53.094;8.778;2024-03-02T05:58:41;10.63;;;7.67;;
24677;SDS011;12800;53.094;8.778;2024-03-02T06:01:13;11.37;;;7.60;;
24677;SDS011;12800;53.094;8.778;2024-03-02T06:03:38;11.23;;;8.33;;
24677;SDS011;12800;53.094;8.778;2024-03-02T06:06:04;11.17;;;8.27;;
24677;SDS011;12800;53.094;8.778;2024-03-02T06:08:30;11.67;;;8.40;;
24677;SDS011;12800;53.094;8.778;2024-03-02T06:10:56;10.90;;;7.77;;
24677;SDS011;12800;53.094;8.778;2024-03-02T06:13:22;11.33;;;8.07;;
24677;SDS011;12800;53.094;8.778;2024-03-02T06:15:48;17.13;;;12.13;;
24677;SDS011;12800;53.094;8.778;2024-03-02T06:18:13;12.40;;;8.73;;
24677;SDS011;12800;53.094;8.778;2024-03-02T06:20:39;10.13;;;7.90;;
24677;SDS011;12800;53.094;8.778;2024-03-02T06:23:05;10.63;;;8.20;;
24677;SDS011;12800;53.094;8.778;2024-03-02T06:25:30;10.33;;;7.83;;
24677;SDS011;12800;53.094;8.778;2024-03-02T06:27:56;12.60;;;9.00;;
24677;SDS011;12800;53.094;8.778;2024-03-02T06:30:21;10.83;;;7.67;;
24677;SDS011;12800;53.094;8.778;2024-03-02T06:32:47;26.23;;;17.90;;
24677;SDS011;12800;53.094;8.778;2024-03-02T06:35:13;15.20;;;10.57;;
24677;SDS011;12800;53.094;8.778;2024-03-02T06:37:38;11.53;;;9.20;;
24677;SDS011;12800;53.094;8.778;2024-03-02T06:40:05;21.23;;;15.27;;
24677;SDS011;12800;53.094;8.778;2024-03-02T06:42:32;17.73;;;12.33;;
24677;SDS011;12800;53.094;8.778;2024-03-02T06:44:59;15.37;;;9.63;;
24677;SDS011;12800;53.094;8.778;2024-03-02T06:47:25;12.63;;;9.17;;
24677;SDS011;12800;53.094;8.778;2024-03-02T06:49:50;12.50;;;8.80;;
24677;SDS011;12800;53.094;8.778;2024-03-02T06:52:16;12.37;;;9.83;;
24677;SDS011;12800;53.094;8.778;2024-03-02T06:54:42;12.10;;;8.80;;
24677;SDS011;12800;53.094;8.778;2024-03-02T06:57:07;12.73;;;8.73;;
24677;SDS011;12800;53.094;8.778;2024-03-02T06:59:33;13.90;;;11.73;;
24677;SDS011;12800;53.094;8.778;2024-03-02T07:01:58;11.13;;;9.40;;
24677;SDS011;12800;53.094;8.778;2024-03-02T07:04:24;12.80;;;9.23;;
24677;SDS011;12800;53.094;8.778;2024-03-02T07:06:50;12.83;;;8.90;;
24677;SDS011;12800;53.094;8.778;2024-03-02T07:09:16;11.33;;;9.30;;
24677;SDS011;12800;53.094;8.778;2024-03-02T07:11:42;11.60;;;8.77;;
24677;SDS011;12800;53.094;8.778;2024-03-02T07:14:08;12.83;;;9.27;;
24677;SDS011;12800;53.094;8.778;2024-03-02T07:16:33;12.27;;;8.93;;
24677;SDS011;12800;53.094;8.778;2024-03-02T07:18:59;10.90;;;8.77;;
24677;SDS011;12800;53.094;8.778;2024-03-02T07:21:26;21.57;;;14.07;;
24677;SDS011;12800;53.094;8.778;2024-03-02T07:23:52;21.70;;;15.23;;
24677;SDS011;12800;53.094;8.778;2024-03-02T07:26:18;12.90;;;9.73;;
24677;SDS011;12800;53.094;8.778;2024-03-02T07:28:45;11.70;;;9.43;;
24677;SDS011;12800;53.094;8.778;2024-03-02T07:31:13;11.87;;;8.63;;
24677;SDS011;12800;53.094;8.778;2024-03-02T07:33:38;13.97;;;9.73;;
24677;SDS011;12800;53.094;8.778;2024-03-02T07:36:04;15.50;;;10.23;;
24677;SDS011;12800;53.094;8.778;2024-03-02T07:38:30;16.57;;;10.83;;
24677;SDS011;12800;53.094;8.778;2024-03-02T07:40:57;12.67;;;9.27;;
24677;SDS011;12800;53.094;8.778;2024-03-02T07:43:22;13.27;;;10.17;;
24677;SDS011;12800;53.094;8.778;2024-03-02T07:45:48;19.33;;;11.80;;
24677;SDS011;12800;53.094;8.778;2024-03-02T07:48:14;14.83;;;9.47;;
24677;SDS011;12800;53.094;8.778;2024-03-02T07:50:40;13.23;;;9.07;;
24677;SDS011;12800;53.094;8.778;2024-03-02T07:53:06;14.63;;;9.70;;
24677;SDS011;12800;53.094;8.778;2024-03-02T07:55:35;12.30;;;8.97;;
24677;SDS011;12800;53.094;8.778;2024-03-02T07:58:00;12.07;;;9.37;;
24677;SDS011;12800;53.094;8.778;2024-03-02T08:00:26;13.93;;;10.10;;
24677;SDS011;12800;53.094;8.778;2024-03-02T08:02:52;15.90;;;10.00;;
24677;SDS011;12800;53.094;8.778;2024-03-02T08:05:18;12.90;;;9.50;;
24677;SDS011;12800;53.094;8.778;2024-03-02T08:07:45;14.57;;;10.37;;
24677;SDS011;12800;53.094;8.778;2024-03-02T08:10:11;14.10;;;10.17;;
24677;SDS011;12800;53.094;8.778;2024-03-02T08:12:37;12.03;;;8.57;;
24677;SDS011;12800;53.094;8.778;2024-03-02T08:15:03;13.60;;;9.83;;
24677;SDS011;12800;53.094;8.778;2024-03-02T08:17:29;13.33;;;10.17;;
24677;SDS011;12800;53.094;8.778;2024-03-02T08:19:55;15.97;;;9.90;;
24677;SDS011;12800;53.094;8.778;2024-03-02T08:22:21;12.77;;;9.97;;
24677;SDS011;12800;53.094;8.778;2024-03-02T08:24:47;12.37;;;9.43;;
24677;SDS011;12800;53.094;8.778;2024-03-02T08:27:13;14.97;;;10.00;;
24677;SDS011;12800;53.094;8.778;2024-03-02T08:29:40;14.50;;;10.60;;
24677;SDS011;12800;53.094;8.778;2024-03-02T08:32:06;13.73;;;9.53;;
24677;SDS011;12800;53.094;8.778;2024-03-02T08:34:32;14.13;;;9.83;;
24677;SDS011;12800;53.094;8.778;2024-03-02T08:36:58;13.40;;;10.00;;
24677;SDS011;12800;53.094;8.778;2024-03-02T08:39:24;27.47;;;16.93;;
24677;SDS011;12800;53.094;8.778;2024-03-02T08:41:50;18.53;;;12.60;;
24677;SDS011;12800;53.094;8.778;2024-03-02T08:44:16;14.73;;;10.77;;
24677;SDS011;12800;53.094;8.778;2024-03-02T08:46:42;18.73;;;11.20;;
24677;SDS011;12800;53.094;8.778;2024-03-02T08:49:08;19.13;;;11.10;;
24677;SDS011;12800;53.094;8.778;2024-03-02T08:51:34;15.63;;;11.13;;
24677;SDS011;12800;53.094;8.778;2024-03-02T08:54:00;15.40;;;10.87;;
24677;SDS011;12800;53.094;8.778;2024-03-02T08:56:26;14.87;;;9.70;;
24677;SDS011;12800;53.094;8.778;2024-03-02T08:58:51;13.37;;;10.00;;
24677;SDS011;12800;53.094;8.778;2024-03-02T09:01:17;13.07;;;9.63;;
24677;SDS011;12800;53.094;8.778;2024-03-02T09:03:44;15.37;;;10.07;;
24677;SDS011;12800;53.094;8.778;2024-03-02T09:06:10;12.97;;;9.53;;
24677;SDS011;12800;53.094;8.778;2024-03-02T09:08:36;16.00;;;10.00;;
24677;SDS011;12800;53.094;8.778;2024-03-02T09:11:03;17.30;;;10.33;;
24677;SDS011;12800;53.094;8.778;2024-03-02T09:13:29;14.60;;;9.70;;
24677;SDS011;12800;53.094;8.778;2024-03-02T09:15:55;13.83;;;10.13;;
24677;SDS011;12800;53.094;8.778;2024-03-02T09:18:21;13.50;;;10.70;;
24677;SDS011;12800;53.094;8.778;2024-03-02T09:20:47;15.23;;;9.67;;
24677;SDS011;12800;53.094;8.778;2024-03-02T09:23:12;12.57;;;9.50;;
24677;SDS011;12800;53.094;8.778;2024-03-02T09:25:38;14.23;;;9.97;;
24677;SDS011;12800;53.094;8.778;2024-03-02T09:28:04;14.00;;;9.53;;
24677;SDS011;12800;53.094;8.778;2024-03-02T09:30:29;14.33;;;9.67;;
24677;SDS011;12800;53.094;8.778;2024-03-02T09:32:55;15.20;;;10.73;;
24677;SDS011;12800;53.094;8.778;2024-03-02T09:35:21;14.00;;;10.13;;
24677;SDS011;12800;53.094;8.778;2024-03-02T09:37:46;13.60;;;9.70;;
24677;SDS011;12800;53.094;8.778;2024-03-02T09:40:13;13.03;;;9.30;;
24677;SDS011;12800;53.094;8.778;2024-03-02T09:42:39;14.00;;;9.63;;
24677;SDS011;12800;53.094;8.778;2024-03-02T09:45:06;12.33;;;8.93;;
24677;SDS011;12800;53.094;8.778;2024-03-02T09:47:32;10.93;;;8.60;;
24677;SDS011;12800;53.094;8.778;2024-03-02T09:49:58;12.23;;;9.33;;
24677;SDS011;12800;53.094;8.778;2024-03-02T09:52:24;13.23;;;9.67;;
24677;SDS011;12800;53.094;8.778;2024-03-02T09:54:50;11.73;;;8.80;;
24677;SDS011;12800;53.094;8.778;2024-03-02T09:57:16;12.40;;;9.93;;
24677;SDS011;12800;53.094;8.778;2024-03-02T09:59:42;15.37;;;9.37;;
24677;SDS011;12800;53.094;8.778;2024-03-02T10:02:07;12.90;;;9.03;;
24677;SDS011;12800;53.094;8.778;2024-03-02T10:04:33;12.80;;;9.50;;
24677;SDS011;12800;53.094;8.778;2024-03-02T10:07:13;11.87;;;8.63;;
24677;SDS011;12800;53.094;8.778;2024-03-02T10:09:44;23.27;;;16.33;;
24677;SDS011;12800;53.094;8.778;2024-03-02T10:12:11;13.47;;;10.07;;
24677;SDS011;12800;53.094;8.778;2024-03-02T10:14:37;14.57;;;9.03;;
24677;SDS011;12800;53.094;8.778;2024-03-02T10:17:07;12.40;;;8.63;;
24677;SDS011;12800;53.094;8.778;2024-03-02T10:19:34;15.40;;;9.07;;
24677;SDS011;12800;53.094;8.778;2024-03-02T10:22:02;13.23;;;9.00;;
24677;SDS011;12800;53.094;8.778;2024-03-02T10:24:49;14.23;;;8.90;;
24677;SDS011;12800;53.094;8.778;2024-03-02T10:27:18;12.07;;;8.83;;
24677;SDS011;12800;53.094;8.778;2024-03-02T10:29:53;10.67;;;7.47;;
24677;SDS011;12800;53.094;8.778;2024-03-02T10:32:19;12.17;;;8.03;;
24677;SDS011;12800;53.094;8.778;2024-03-02T10:34:47;11.53;;;7.83;;
24677;SDS011;12800;53.094;8.778;2024-03-02T10:37:15;16.43;;;10.50;;
24677;SDS011;12800;53.094;8.778;2024-03-02T10:39:42;32.67;;;22.10;;
24677;SDS011;12800;53.094;8.778;2024-03-02T10:42:08;15.37;;;9.97;;
24677;SDS011;12800;53.094;8.778;2024-03-02T10:44:34;12.40;;;8.13;;
24677;SDS011;12800;53.094;8.778;2024-03-02T10:47:00;11.63;;;7.53;;
24677;SDS011;12800;53.094;8.778;2024-03-02T10:49:29;14.17;;;7.47;;
24677;SDS011;12800;53.094;8.778;2024-03-02T10:51:58;10.10;;;6.70;;
24677;SDS011;12800;53.094;8.778;2024-03-02T10:54:25;9.30;;;6.60;;
24677;SDS011;12800;53.094;8.778;2024-03-02T10:56:52;9.23;;;7.07;;
24677;SDS011;12800;53.094;8.778;2024-03-02T10:59:35;9.30;;;6.73;;
24677;SDS011;12800;53.094;8.778;2024-03-02T11:02:02;8.50;;;6.30;;
24677;SDS011;12800;53.094;8.778;2024-03-02T11:04:29;9.03;;;6.50;;
24677;SDS011;12800;53.094;8.778;2024-03-02T11:06:59;8.60;;;6.43;;
24677;SDS011;12800;53.094;8.778;2024-03-02T11:09:33;9.53;;;6.10;;
24677;SDS011;12800;53.094;8.778;2024-03-02T11:14:44;8.67;;;5.97;;
24677;SDS011;12800;53.094;8.778;2024-03-02T11:17:09;8.63;;;5.53;;
24677;SDS011;12800;53.094;8.778;2024-03-02T11:19:37;10.07;;;6.30;;
24677;SDS011;12800;53.094;8.778;2024-03-02T11:22:05;7.03;;;5.60;;
24677;SDS011;12800;53.094;8.778;2024-03-02T11:24:31;14.47;;;6.87;;
24677;SDS011;12800;53.094;8.778;2024-03-02T11:27:04;10.23;;;6.33;;
24677;SDS011;12800;53.094;8.778;2024-03-02T11:32:03;7.32;;;5.85;;
24677;SDS011;12800;53.094;8.778;2024-03-02T11:34:40;9.95;;;6.22;;
24677;SDS011;12800;53.094;8.778;2024-03-02T11:37:14;8.02;;;6.40;;
24677;SDS011;12800;53.094;8.778;2024-03-02T11:39:41;9.48;;;6.05;;
24677;SDS011;12800;53.094;8.778;2024-03-02T11:42:11;7.15;;;5.55;;
24677;SDS011;12800;53.094;8.778;2024-03-02T11:44:50;10.18;;;6.65;;
24677;SDS011;12800;53.094;8.778;2024-03-02T11:47:16;8.07;;;5.88;;
24677;SDS011;12800;53.094;8.778;2024-03-02T11:52:14;16.58;;;10.50;;
24677;SDS011;12800;53.094;8.778;2024-03-02T11:54:42;7.78;;;6.05;;
24677;SDS011;12800;53.094;8.778;2024-03-02T11:57:13;7.80;;;5.63;;
24677;SDS011;12800;53.094;8.778;2024-03-02T11:59:43;5.63;;;4.85;;
24677;SDS011;12800;53.094;8.778;2024-03-02T12:02:14;8.07;;;5.80;;
24677;SDS011;12800;53.094;8.778;2024-03-02T12:04:44;8.02;;;5.57;;
24677;SDS011;12800;53.094;8.778;2024-03-02T12:07:10;7.18;;;5.15;;
24677;SDS011;12800;53.094;8.778;2024-03-02T12:09:37;12.13;;;8.75;;
24677;SDS011;12800;53.094;8.778;2024-03-02T12:12:04;9.18;;;7.07;;
24677;SDS011;12800;53.094;8.778;2024-03-02T12:14:31;9.32;;;6.18;;
24677;SDS011;12800;53.094;8.778;2024-03-02T12:16:57;9.60;;;6.43;;
24677;SDS011;12800;53.094;8.778;2024-03-02T12:19:26;8.65;;;5.85;;
24677;SDS011;12800;53.094;8.778;2024-03-02T12:21:54;9.80;;;6.00;;
24677;SDS011;12800;53.094;8.778;2024-03-02T12:24:24;8.05;;;5.18;;
24677;SDS011;12800;53.094;8.778;2024-03-02T12:26:51;7.15;;;5.20;;
24677;SDS011;12800;53.094;8.778;2024-03-02T12:29:18;7.93;;;5.82;;
24677;SDS011;12800;53.094;8.778;2024-03-02T12:31:45;9.45;;;5.80;;
24677;SDS011;12800;53.094;8.778;2024-03-02T12:34:16;7.95;;;5.43;;
24677;SDS011;12800;53.094;8.778;2024-03-02T12:36:42;8.48;;;5.80;;
24677;SDS011;12800;53.094;8.778;2024-03-02T12:39:12;7.43;;;4.88;;
24677;SDS011;12800;53.094;8.778;2024-03-02T12:41:38;7.85;;;5.78;;
24677;SDS011;12800;53.094;8.778;2024-03-02T12:44:04;8.52;;;5.68;;
24677;SDS011;12800;53.094;8.778;2024-03-02T12:46:34;7.50;;;5.40;;
24677;SDS011;12800;53.094;8.778;2024-03-02T12:49:11;6.93;;;4.95;;
24677;SDS011;12800;53.094;8.778;2024-03-02T12:51:38;6.05;;;4.82;;
24677;SDS011;12800;53.094;8.778;2024-03-02T12:54:08;7.05;;;5.22;;
24677;SDS011;12800;53.094;8.778;2024-03-02T12:56:35;12.23;;;6.47;;
24677;SDS011;12800;53.094;8.778;2024-03-02T12:59:05;8.65;;;5.95;;
24677;SDS011;12800;53.094;8.778;2024-03-02T13:01:31;6.93;;;5.18;;
24677;SDS011;12800;53.094;8.778;2024-03-02T13:03:57;7.38;;;5.03;;
24677;SDS011;12800;53.094;8.778;2024-03-02T13:06:24;6.28;;;4.80;;
24677;SDS011;12800;53.094;8.778;2024-03-02T13:08:53;9.80;;;6.07;;
24677;SDS011;12800;53.094;8.778;2024-03-02T13:11:20;9.38;;;6.13;;
24677;SDS011;12800;53.094;8.778;2024-03-02T13:13:47;6.95;;;5.28;;
24677;SDS011;12800;53.094;8.778;2024-03-02T13:16:13;5.80;;;4.60;;
24677;SDS011;12800;53.094;8.778;2024-03-02T13:18:39;6.18;;;4.88;;
24677;SDS011;12800;53.094;8.778;2024-03-02T13:21:05;7.63;;;4.95;;
24677;SDS011;12800;53.094;8.778;2024-03-02T13:23:31;6.95;;;5.43;;
24677;SDS011;12800;53.094;8.778;2024-03-02T13:26:00;8.02;;;6.07;;
24677;SDS011;12800;53.094;8.778;2024-03-02T13:28:26;7.97;;;5.20;;
24677;SDS011;12800;53.094;8.778;2024-03-02T13:30:52;7.57;;;6.10;;
24677;SDS011;12800;53.094;8.778;2024-03-02T13:33:17;7.35;;;5.22;;
24677;SDS011;12800;53.094;8.778;2024-03-02T13:35:49;7.97;;;5.93;;
24677;SDS011;12800;53.094;8.778;2024-03-02T13:38:16;6.72;;;4.82;;
24677;SDS011;12800;53.094;8.778;2024-03-02T13:40:45;6.35;;;4.88;;
24677;SDS011;12800;53.094;8.778;2024-03-02T13:43:11;7.63;;;5.15;;
24677;SDS011;12800;53.094;8.778;2024-03-02T13:45:37;8.85;;;5.55;;
24677;SDS011;12800;53.094;8.778;2024-03-02T13:48:03;7.95;;;4.95;;
24677;SDS011;12800;53.094;8.778;2024-03-02T13:50:29;7.13;;;5.25;;
24677;SDS011;12800;53.094;8.778;2024-03-02T13:52:55;6.95;;;5.13;;
24677;SDS011;12800;53.094;8.778;2024-03-02T13:55:23;14.48;;;5.72;;
24677;SDS011;12800;53.094;8.778;2024-03-02T13:57:48;7.57;;;4.75;;
24677;SDS011;12800;53.094;8.778;2024-03-02T14:00:15;7.53;;;5.70;;
24677;SDS011;12800;53.094;8.778;2024-03-02T14:02:47;7.00;;;4.75;;
24677;SDS011;12800;53.094;8.778;2024-03-02T14:05:16;10.63;;;5.07;;
24677;SDS011;12800;53.094;8.778;2024-03-02T14:07:42;7.78;;;5.10;;
24677;SDS011;12800;53.094;8.778;2024-03-02T14:10:09;6.60;;;5.43;;
24677;SDS011;12800;53.094;8.778;2024-03-02T14:12:35;7.50;;;4.68;;
24677;SDS011;12800;53.094;8.778;2024-03-02T14:15:01;5.32;;;4.38;;
24677;SDS011;12800;53.094;8.778;2024-03-02T14:17:29;7.00;;;4.53;;
24677;SDS011;12800;53.094;8.778;2024-03-02T14:19:57;9.02;;;5.60;;
24677;SDS011;12800;53.094;8.778;2024-03-02T14:22:24;7.28;;;4.95;;
24677;SDS011;12800;53.094;8.778;2024-03-02T14:24:50;7.10;;;4.93;;
24677;SDS011;12800;53.094;8.778;2024-03-02T14:27:15;8.50;;;4.32;;
24677;SDS011;12800;53.094;8.778;2024-03-02T14:29:42;5.95;;;4.22;;
24677;SDS011;12800;53.094;8.778;2024-03-02T14:32:08;12.95;;;7.88;;
24677;SDS011;12800;53.094;8.778;2024-03-02T14:34:33;7.30;;;5.53;;
24677;SDS011;12800;53.094;8.778;2024-03-02T14:36:59;8.50;;;5.03;;
24677;SDS011;12800;53.094;8.778;2024-03-02T14:39:26;6.05;;;4.55;;
24677;SDS011;12800;53.094;8.778;2024-03-02T14:41:52;7.80;;;4.55;;
24677;SDS011;12800;53.094;8.778;2024-03-02T14:44:18;5.75;;;4.38;;